createdAt,value
2018-08-31T00:01:04.388Z,56.96
2018-08-31T00:05:57.019Z,57.41
2018-08-31T00:08:49.356Z,57.64
2018-08-31T00:11:50.561Z,57.82
2018-08-31T00:14:21.537Z,58.14
2018-08-31T00:16:52.503Z,58.43
2018-08-31T00:19:23.533Z,58.65
2018-08-31T00:21:54.475Z,58.32
2018-08-31T00:24:48.437Z,59.32
2018-08-31T00:27:42.485Z,58.68
2018-08-31T00:30:36.773Z,58.53
2018-08-31T00:33:47.397Z,58.55
2018-08-31T00:38:44.191Z,58.83
2018-08-31T00:42:00.533Z,58.94
2018-08-31T00:45:38.291Z,59.40
2018-08-31T00:48:09.423Z,59.45
2018-08-31T00:50:40.466Z,59.61
2018-08-31T00:53:11.505Z,59.98
2018-08-31T00:55:42.481Z,59.96
2018-08-31T00:58:13.460Z,60.34
2018-08-31T01:00:46.252Z,60.15
2018-08-31T01:03:17.493Z,60.05
2018-08-31T01:05:48.473Z,59.91
2018-08-31T01:08:19.523Z,60.46
2018-08-31T01:10:50.512Z,60.71
2018-08-31T01:13:21.458Z,60.24
2018-08-31T01:15:52.479Z,60.50
2018-08-31T01:18:23.467Z,61.10
2018-08-31T01:20:54.497Z,60.59
2018-08-31T01:23:25.468Z,61.36
2018-08-31T01:25:56.501Z,61.32
2018-08-31T01:28:27.509Z,61.37
2018-08-31T01:30:58.493Z,61.21
2018-08-31T01:33:29.505Z,61.52
2018-08-31T01:36:00.529Z,61.83
2018-08-31T01:38:31.513Z,62.39
2018-08-31T01:41:02.495Z,62.57
2018-08-31T01:43:33.461Z,63.00
2018-08-31T01:46:04.437Z,62.62
2018-08-31T01:48:35.517Z,62.17
2018-08-31T01:51:11.781Z,62.77
2018-08-31T01:53:42.593Z,63.75
2018-08-31T01:56:13.481Z,63.37
2018-08-31T01:58:44.605Z,63.45
2018-08-31T02:01:15.481Z,63.14
2018-08-31T02:03:46.500Z,63.44
2018-08-31T02:06:17.521Z,63.70
2018-08-31T02:08:53.613Z,63.67
2018-08-31T02:11:24.508Z,64.07
2018-08-31T02:13:55.477Z,64.62
2018-08-31T02:16:26.494Z,64.82
2018-08-31T02:18:57.582Z,64.78
2018-08-31T02:21:28.499Z,65.40
2018-08-31T02:23:59.604Z,65.03
2018-08-31T02:26:30.561Z,65.51
2018-08-31T02:29:02.305Z,65.58
2018-08-31T02:31:33.400Z,65.16
2018-08-31T02:34:04.474Z,65.79
2018-08-31T02:36:35.489Z,65.82
2018-08-31T02:39:08.344Z,66.02
2018-08-31T02:41:39.366Z,66.34
2018-08-31T02:44:10.389Z,66.85
2018-08-31T02:46:41.449Z,66.80
2018-08-31T02:49:12.493Z,67.04
2018-08-31T02:51:43.502Z,67.34
2018-08-31T02:54:14.482Z,67.16
2018-08-31T02:56:45.521Z,67.48
2018-08-31T02:59:16.492Z,67.25
2018-08-31T03:01:47.473Z,68.02
2018-08-31T03:04:18.688Z,68.10
2018-08-31T03:06:49.641Z,68.06
2018-08-31T03:09:20.506Z,67.59
2018-08-31T03:11:51.492Z,68.15
2018-08-31T03:14:22.490Z,67.86
2018-08-31T03:16:53.489Z,68.18
2018-08-31T03:19:24.498Z,67.88
2018-08-31T03:21:55.535Z,67.98
2018-08-31T03:24:26.498Z,68.40
2018-08-31T03:26:57.500Z,68.63
2018-08-31T03:29:28.482Z,68.28
2018-08-31T03:31:59.510Z,68.88
2018-08-31T03:34:30.477Z,68.68
2018-08-31T03:37:01.507Z,68.73
2018-08-31T03:39:32.443Z,68.63
2018-08-31T03:42:03.504Z,69.37
2018-08-31T03:44:34.518Z,69.10
2018-08-31T03:47:05.510Z,69.29
2018-08-31T03:49:36.470Z,69.54
2018-08-31T03:52:07.526Z,69.81
2018-08-31T03:54:38.477Z,69.12
2018-08-31T03:57:09.630Z,69.65
2018-08-31T03:59:40.505Z,69.76
2018-08-31T04:02:11.485Z,69.61
2018-08-31T04:04:42.505Z,69.25
2018-08-31T04:07:13.635Z,69.87
2018-08-31T04:09:45.278Z,69.82
2018-08-31T04:12:15.407Z,70.02
2018-08-31T04:14:46.508Z,69.77
2018-08-31T04:17:17.522Z,70.13
2018-08-31T04:19:48.532Z,70.40
2018-08-31T04:22:19.500Z,70.16
2018-08-31T04:24:50.493Z,70.10
2018-08-31T04:27:21.482Z,70.57
2018-08-31T04:29:52.504Z,71.01
2018-08-31T04:32:23.478Z,71.12
2018-08-31T04:34:54.492Z,71.24
2018-08-31T04:37:25.518Z,71.00
2018-08-31T04:39:56.522Z,71.43
2018-08-31T04:42:27.499Z,70.79
2018-08-31T04:44:58.471Z,71.55
2018-08-31T04:47:29.498Z,71.33
2018-08-31T04:50:00.481Z,71.65
2018-08-31T04:52:31.568Z,71.73
2018-08-31T04:55:02.491Z,72.02
2018-08-31T04:57:33.505Z,71.46
2018-08-31T05:00:04.521Z,71.51
2018-08-31T05:02:35.544Z,71.84
2018-08-31T05:05:06.505Z,71.82
2018-08-31T05:07:37.517Z,72.38
2018-08-31T05:10:08.522Z,71.91
2018-08-31T05:12:39.520Z,71.93
2018-08-31T05:15:10.473Z,71.81
2018-08-31T05:17:41.611Z,71.55
2018-08-31T05:20:12.569Z,71.39
2018-08-31T05:22:43.546Z,71.44
2018-08-31T05:25:14.479Z,72.48
2018-08-31T05:27:45.512Z,71.10
2018-08-31T05:30:16.484Z,71.03
2018-08-31T05:32:47.489Z,70.87
2018-08-31T05:35:18.497Z,70.84
2018-08-31T05:37:49.545Z,71.38
2018-08-31T05:40:21.530Z,71.55
2018-08-31T05:42:52.518Z,70.98
2018-08-31T05:45:23.588Z,71.15
2018-08-31T05:47:54.579Z,71.24
2018-08-31T05:50:25.538Z,70.82
2018-08-31T05:52:56.471Z,71.62
2018-08-31T05:55:27.483Z,71.03
2018-08-31T05:57:58.530Z,70.79
2018-08-31T06:00:29.660Z,71.43
2018-08-31T06:03:00.544Z,71.00
2018-08-31T06:05:31.482Z,70.61
2018-08-31T06:08:02.504Z,71.15
2018-08-31T06:10:33.545Z,71.07
2018-08-31T06:13:04.493Z,71.16
2018-08-31T06:15:35.507Z,69.81
2018-08-31T06:18:06.510Z,70.73
2018-08-31T06:20:37.512Z,70.54
2018-08-31T06:23:08.563Z,70.20
2018-08-31T06:25:39.526Z,69.83
2018-08-31T06:28:10.514Z,70.32
2018-08-31T06:30:41.582Z,70.15
2018-08-31T06:33:12.538Z,69.57
2018-08-31T06:35:43.650Z,69.42
2018-08-31T06:38:14.590Z,69.83
2018-08-31T06:40:45.592Z,69.53
2018-08-31T06:43:16.516Z,68.97
2018-08-31T06:45:47.481Z,67.76
2018-08-31T06:48:18.461Z,68.91
2018-08-31T06:50:49.551Z,67.71
2018-08-31T06:53:20.478Z,68.02
2018-08-31T06:55:51.510Z,67.42
2018-08-31T06:58:22.505Z,67.43
2018-08-31T07:00:53.490Z,67.89
2018-08-31T07:03:24.486Z,67.83
2018-08-31T07:05:56.277Z,67.52
2018-08-31T07:08:27.366Z,67.88
2018-08-31T07:10:58.510Z,67.77
2018-08-31T07:13:29.669Z,67.73
2018-08-31T07:16:00.537Z,67.38
2018-08-31T07:18:31.523Z,67.67
2018-08-31T07:21:02.469Z,66.85
2018-08-31T07:23:33.485Z,67.63
2018-08-31T07:26:04.474Z,66.87
2018-08-31T07:28:35.546Z,66.60
2018-08-31T07:31:06.746Z,66.83
2018-08-31T07:33:37.558Z,65.39
2018-08-31T07:36:08.524Z,65.70
2018-08-31T07:38:40.392Z,66.01
2018-08-31T07:41:11.507Z,64.67
2018-08-31T07:43:42.551Z,65.69
2018-08-31T07:46:13.570Z,65.37
2018-08-31T07:48:44.519Z,64.74
2018-08-31T07:51:15.505Z,64.73
2018-08-31T07:53:46.595Z,63.95
2018-08-31T07:56:17.485Z,64.53
2018-08-31T07:58:48.530Z,63.36
2018-08-31T08:01:19.531Z,63.88
2018-08-31T08:03:50.547Z,64.16
2018-08-31T08:06:21.490Z,63.70
2018-08-31T08:08:52.494Z,62.32
2018-08-31T08:11:23.630Z,62.78
2018-08-31T08:13:54.602Z,62.36
2018-08-31T08:16:25.510Z,62.04
2018-08-31T08:18:56.498Z,62.08
2018-08-31T08:21:27.498Z,62.07
2018-08-31T08:23:58.506Z,61.59
2018-08-31T08:26:29.477Z,61.78
2018-08-31T08:29:00.512Z,61.59
2018-08-31T08:31:31.481Z,61.72
2018-08-31T08:34:03.222Z,62.30
2018-08-31T08:36:34.366Z,61.52
2018-08-31T08:39:06.682Z,62.33
2018-08-31T08:41:37.537Z,61.80
2018-08-31T08:44:09.332Z,61.83
2018-08-31T08:46:40.536Z,61.85
2018-08-31T08:49:11.518Z,61.52
2018-08-31T08:51:42.512Z,61.48
2018-08-31T08:54:13.517Z,60.97
2018-08-31T08:56:44.460Z,60.71
2018-08-31T08:59:15.452Z,59.36
2018-08-31T09:01:46.435Z,58.55
2018-08-31T09:04:17.503Z,58.48
2018-08-31T09:06:48.489Z,59.23
2018-08-31T09:09:19.512Z,58.78
2018-08-31T09:11:50.500Z,57.36
2018-08-31T09:14:21.490Z,57.37
2018-08-31T09:16:52.505Z,56.12
2018-08-31T09:19:23.502Z,55.73
2018-08-31T09:21:54.500Z,56.26
2018-08-31T09:24:25.516Z,55.65
2018-08-31T09:26:56.477Z,54.25
2018-08-31T09:29:27.481Z,54.03
2018-08-31T09:31:58.473Z,53.05
2018-08-31T09:34:29.542Z,52.26
2018-08-31T09:37:00.491Z,51.55
2018-08-31T09:39:31.498Z,51.68
2018-08-31T09:42:02.506Z,50.97
2018-08-31T09:44:33.513Z,50.92
2018-08-31T09:47:04.502Z,48.75
2018-08-31T09:49:35.527Z,49.04
2018-08-31T09:52:06.522Z,48.33
2018-08-31T09:54:37.527Z,46.75
2018-08-31T09:57:08.688Z,47.18
2018-08-31T09:59:41.313Z,46.67
2018-08-31T10:02:16.229Z,46.93
2018-08-31T10:04:47.809Z,47.28
2018-08-31T10:07:18.569Z,47.06
2018-08-31T10:22:33.519Z,48.98
2018-08-31T10:25:04.508Z,48.55
2018-08-31T10:27:35.472Z,47.21
2018-08-31T10:30:07.372Z,46.80
2018-08-31T10:32:38.689Z,46.58
2018-08-31T10:35:09.607Z,45.69
2018-08-31T10:37:40.545Z,46.95
2018-08-31T10:40:11.479Z,45.79
2018-08-31T10:42:42.574Z,45.42
2018-08-31T10:45:13.522Z,44.80
2018-08-31T10:47:44.499Z,44.41
2018-08-31T10:50:15.513Z,44.76
2018-08-31T10:52:46.510Z,44.36
2018-08-31T10:55:17.518Z,44.61
2018-08-31T10:57:48.518Z,45.42
2018-08-31T11:00:19.542Z,44.52
2018-08-31T11:02:50.490Z,44.49
2018-08-31T11:05:21.522Z,43.78
2018-08-31T11:07:52.498Z,42.08
2018-08-31T11:10:23.481Z,41.50
2018-08-31T11:12:54.585Z,40.49
2018-08-31T11:15:25.517Z,39.67
2018-08-31T11:17:56.568Z,38.11
2018-08-31T11:20:28.453Z,38.62
2018-08-31T11:22:59.556Z,38.96
2018-08-31T11:25:30.542Z,37.62
2018-08-31T11:28:01.522Z,36.53
2018-08-31T11:30:32.550Z,36.76
2018-08-31T11:33:03.498Z,35.77
2018-08-31T11:35:34.516Z,36.30
2018-08-31T11:38:05.507Z,36.19
2018-08-31T11:40:36.504Z,34.59
2018-08-31T11:43:07.819Z,33.83
2018-08-31T11:45:38.644Z,34.75
2018-08-31T11:48:09.566Z,34.03
2018-08-31T11:50:40.530Z,34.29
2018-08-31T11:53:11.523Z,35.00
2018-08-31T11:55:42.518Z,33.58
2018-08-31T11:58:13.534Z,33.07
2018-08-31T12:00:44.579Z,33.89
2018-08-31T12:03:15.523Z,34.65
2018-08-31T12:05:46.513Z,33.70
2018-08-31T12:08:17.517Z,32.37
2018-08-31T12:10:48.522Z,31.22
2018-08-31T12:13:19.489Z,32.07
2018-08-31T12:15:50.542Z,29.71
2018-08-31T12:18:21.523Z,33.11
2018-08-31T12:20:52.529Z,34.39
2018-08-31T12:23:23.517Z,34.14
2018-08-31T12:25:54.575Z,34.28
2018-08-31T12:28:25.581Z,32.14
2018-08-31T12:33:43.022Z,30.74
2018-08-31T12:36:14.393Z,30.65
2018-08-31T12:38:45.625Z,30.17
2018-08-31T12:41:16.526Z,29.65
2018-08-31T12:43:47.623Z,29.67
2018-08-31T12:46:18.537Z,28.98
2018-08-31T12:48:49.542Z,31.32
2018-08-31T12:51:20.529Z,31.19
2018-08-31T12:53:51.574Z,31.31
2018-08-31T12:56:22.535Z,31.92
2018-08-31T12:58:53.518Z,32.71
2018-08-31T13:01:24.533Z,33.45
2018-08-31T13:03:55.525Z,33.73
2018-08-31T13:06:26.526Z,30.13
2018-08-31T13:08:57.578Z,31.30
2018-08-31T13:11:28.553Z,30.96
2018-08-31T13:13:59.507Z,30.53
2018-08-31T13:16:30.513Z,29.27
2018-08-31T13:19:01.551Z,28.54
2018-08-31T13:21:32.549Z,28.79
2018-08-31T13:24:03.509Z,29.37
2018-08-31T13:26:34.538Z,28.16
2018-08-31T13:29:05.535Z,28.75
2018-08-31T13:31:36.517Z,27.90
2018-08-31T13:34:07.531Z,28.25
2018-08-31T13:36:38.517Z,27.34
2018-08-31T13:39:10.507Z,27.47
2018-08-31T13:41:41.514Z,27.98
2018-08-31T13:44:12.506Z,26.79
2018-08-31T13:46:43.538Z,27.52
2018-08-31T13:49:14.584Z,25.32
2018-08-31T13:51:45.591Z,27.62
2018-08-31T13:54:16.526Z,27.03
2018-08-31T13:56:47.503Z,28.59
2018-08-31T13:59:18.525Z,27.28
2018-08-31T14:01:49.595Z,26.95
2018-08-31T14:04:20.541Z,27.42
2018-08-31T14:06:51.542Z,26.41
2018-08-31T14:09:22.511Z,26.35
2018-08-31T14:11:53.719Z,26.41
2018-08-31T14:14:24.573Z,26.99
2018-08-31T14:16:55.496Z,27.81
2018-08-31T14:19:26.770Z,28.30
2018-08-31T14:21:57.583Z,28.66
2018-08-31T14:24:28.544Z,27.16
2018-08-31T14:26:59.519Z,27.18
2018-08-31T14:29:30.527Z,27.73
2018-08-31T14:32:01.533Z,28.13
2018-08-31T14:34:32.493Z,27.54
2018-08-31T14:37:03.521Z,28.18
2018-08-31T14:39:34.484Z,26.58
2018-08-31T14:42:05.565Z,27.86
2018-08-31T14:44:36.528Z,28.50
2018-08-31T14:47:07.489Z,28.64
2018-08-31T14:49:38.523Z,27.73
2018-08-31T14:52:09.533Z,28.18
2018-08-31T14:54:43.271Z,28.20
2018-08-31T14:57:15.667Z,27.29
2018-08-31T14:59:59.761Z,27.94
2018-08-31T15:02:31.021Z,29.21
2018-08-31T15:05:02.384Z,29.17
2018-08-31T15:07:33.558Z,29.72
2018-08-31T15:10:04.550Z,28.81
2018-08-31T15:12:35.723Z,29.45
2018-08-31T15:15:06.765Z,30.01
2018-08-31T15:17:37.608Z,29.54
2018-08-31T15:20:08.713Z,29.56
2018-08-31T15:22:39.844Z,29.83
2018-08-31T15:25:11.310Z,29.82
2018-08-31T15:27:42.477Z,29.58
2018-08-31T15:30:13.531Z,30.40
2018-08-31T15:32:44.665Z,30.69
2018-08-31T15:35:15.566Z,31.28
2018-08-31T15:37:46.509Z,30.88
2018-08-31T15:40:17.494Z,31.27
2018-08-31T15:42:48.537Z,30.92
2018-08-31T15:45:19.494Z,31.65
2018-08-31T15:47:50.641Z,31.66
2018-08-31T15:50:22.201Z,31.34
2018-08-31T15:52:53.369Z,31.78
2018-08-31T15:55:24.397Z,32.31
2018-08-31T15:57:55.533Z,31.54
2018-08-31T16:00:26.512Z,32.55
2018-08-31T16:02:57.538Z,32.29
2018-08-31T16:05:28.483Z,32.81
2018-08-31T16:07:59.546Z,32.87
2018-08-31T16:10:30.505Z,32.41
2018-08-31T16:13:01.533Z,32.71
2018-08-31T16:15:32.629Z,32.38
2018-08-31T16:18:03.596Z,32.15
2018-08-31T16:20:34.599Z,32.78
2018-08-31T16:23:05.564Z,32.42
2018-08-31T16:25:36.750Z,32.52
2018-08-31T16:28:07.681Z,33.17
2018-08-31T16:30:39.562Z,32.49
2018-08-31T16:33:10.535Z,33.08
2018-08-31T16:35:41.505Z,32.96
2018-08-31T16:38:12.528Z,32.73
2018-08-31T16:40:43.541Z,33.41
2018-08-31T16:43:14.535Z,32.87
2018-08-31T16:45:45.503Z,32.86
2018-08-31T16:48:16.489Z,33.03
2018-08-31T16:50:47.529Z,32.95
2018-08-31T16:53:18.621Z,33.73
2018-08-31T16:55:49.481Z,33.77
2018-08-31T16:58:20.553Z,33.92
2018-08-31T17:00:52.274Z,33.23
2018-08-31T17:03:22.504Z,34.79
2018-08-31T17:05:54.323Z,34.94
2018-08-31T17:08:25.429Z,34.48
2018-08-31T17:10:56.562Z,34.39
2018-08-31T17:13:27.524Z,34.55
2018-08-31T17:15:58.601Z,35.69
2018-08-31T17:20:38.587Z,36.17
2018-08-31T17:23:09.552Z,36.09
2018-08-31T17:25:40.565Z,37.22
2018-08-31T17:28:16.710Z,37.29
2018-08-31T17:30:47.592Z,37.31
2018-08-31T17:33:23.583Z,37.40
2018-08-31T17:35:59.576Z,37.21
2018-08-31T17:38:30.762Z,37.24
2018-08-31T17:41:01.722Z,37.77
2018-08-31T17:43:32.576Z,38.21
2018-08-31T17:46:03.564Z,38.56
2018-08-31T17:48:34.521Z,39.15
2018-08-31T17:51:05.520Z,38.18
2018-08-31T17:53:36.508Z,37.82
2018-08-31T17:56:07.501Z,38.01
2018-08-31T17:58:38.615Z,38.69
2018-08-31T18:01:09.900Z,38.32
2018-08-31T18:03:41.369Z,39.28
2018-08-31T18:06:12.546Z,38.67
2018-08-31T18:08:43.493Z,39.20
2018-08-31T18:11:14.519Z,38.89
2018-08-31T18:13:45.525Z,40.00
2018-08-31T18:16:16.556Z,40.02
2018-08-31T18:18:47.610Z,39.91
2018-08-31T18:21:18.505Z,40.32
2018-08-31T18:23:49.493Z,40.41
2018-08-31T18:26:20.504Z,40.24
2018-08-31T18:28:51.506Z,41.29
2018-08-31T18:31:22.505Z,41.11
2018-08-31T18:33:53.581Z,41.21
2018-08-31T18:36:24.517Z,41.55
2018-08-31T18:38:55.494Z,41.64
2018-08-31T18:41:26.550Z,41.47
2018-08-31T18:43:57.571Z,41.90
2018-08-31T18:46:28.550Z,42.13
2018-08-31T18:48:59.551Z,42.15
2018-08-31T18:51:30.485Z,42.39
2018-08-31T18:54:01.465Z,42.34
2018-08-31T18:56:32.510Z,42.63
2018-08-31T18:59:03.509Z,42.76
2018-08-31T19:01:34.687Z,43.04
2018-08-31T19:04:05.573Z,42.45
2018-08-31T19:06:36.505Z,42.85
2018-08-31T19:09:09.376Z,42.93
2018-08-31T19:11:40.489Z,43.21
2018-08-31T19:14:11.555Z,42.84
2018-08-31T19:16:42.499Z,43.03
2018-08-31T19:19:13.542Z,43.07
2018-08-31T19:21:44.531Z,42.80
2018-08-31T19:24:15.515Z,42.80
2018-08-31T19:26:46.547Z,43.16
2018-08-31T19:29:17.505Z,43.25
2018-08-31T19:31:48.524Z,43.20
2018-08-31T19:34:19.468Z,43.33
2018-08-31T19:36:50.501Z,43.21
2018-08-31T19:39:21.481Z,43.40
2018-08-31T19:41:52.690Z,43.56
2018-08-31T19:44:23.605Z,43.83
2018-08-31T19:46:54.752Z,43.53
2018-08-31T19:49:25.533Z,43.43
2018-08-31T19:51:56.521Z,43.89
2018-08-31T19:54:27.581Z,43.97
2018-08-31T19:56:58.619Z,43.62
2018-08-31T19:59:29.560Z,43.94
2018-08-31T20:02:00.482Z,43.77
2018-08-31T20:04:31.489Z,44.48
2018-08-31T20:07:02.493Z,44.74
2018-08-31T20:09:33.483Z,44.15
2018-08-31T20:12:04.513Z,45.07
2018-08-31T20:14:35.509Z,44.80
2018-08-31T20:17:06.490Z,44.44
2018-08-31T20:19:37.570Z,45.18
2018-08-31T20:22:12.629Z,44.99
2018-08-31T20:24:43.571Z,44.75
2018-08-31T20:27:14.513Z,44.51
2018-08-31T20:29:45.488Z,45.15
2018-08-31T20:32:16.510Z,44.99
2018-08-31T20:34:47.535Z,45.57
2018-08-31T20:37:18.514Z,45.22
2018-08-31T20:39:49.517Z,44.95
2018-08-31T20:42:20.497Z,44.89
2018-08-31T20:44:57.295Z,45.17
2018-08-31T20:47:28.376Z,45.32
2018-08-31T20:49:59.513Z,45.12
2018-08-31T20:52:30.535Z,45.63
2018-08-31T20:55:01.559Z,45.64
2018-08-31T20:57:32.500Z,45.96
2018-08-31T21:00:03.505Z,45.33
2018-08-31T21:02:34.484Z,45.56
2018-08-31T21:05:05.547Z,45.30
2018-08-31T21:07:36.633Z,45.19
2018-08-31T21:10:08.288Z,45.88
2018-08-31T21:12:39.389Z,45.47
2018-08-31T21:15:10.537Z,46.01
2018-08-31T21:17:41.485Z,45.60
2018-08-31T21:20:12.514Z,46.26
2018-08-31T21:22:43.680Z,45.84
2018-08-31T21:25:14.665Z,46.40
2018-08-31T21:27:45.579Z,46.39
2018-08-31T21:30:16.547Z,46.54
2018-08-31T21:32:47.493Z,46.00
2018-08-31T21:35:18.530Z,46.31
2018-08-31T21:37:49.512Z,46.03
2018-08-31T21:40:20.485Z,46.61
2018-08-31T21:42:51.481Z,46.64
2018-08-31T21:45:23.002Z,46.92
2018-08-31T21:47:54.306Z,47.03
2018-08-31T21:50:25.370Z,47.04
2018-08-31T21:52:56.738Z,47.08
2018-08-31T21:55:27.596Z,47.68
2018-08-31T21:57:58.481Z,47.56
2018-08-31T22:00:29.469Z,47.69
2018-08-31T22:03:00.518Z,48.15
2018-08-31T22:05:31.479Z,47.82
2018-08-31T22:08:02.488Z,48.84
2018-08-31T22:10:33.513Z,48.32
2018-08-31T22:13:04.477Z,48.88
2018-08-31T22:15:35.510Z,48.75
2018-08-31T22:18:06.521Z,48.76
2018-08-31T22:20:37.510Z,49.08
2018-08-31T22:23:08.466Z,49.13
2018-08-31T22:25:39.518Z,49.69
2018-08-31T22:28:10.588Z,49.39
2018-08-31T22:30:41.485Z,49.54
2018-08-31T22:33:12.611Z,49.69
2018-08-31T22:35:43.557Z,49.86
2018-08-31T22:38:14.498Z,49.45
2018-08-31T22:40:45.515Z,50.01
2018-08-31T22:43:16.511Z,50.47
2018-08-31T22:45:47.501Z,50.52
2018-08-31T22:48:18.498Z,50.71
2018-08-31T22:50:49.488Z,50.63
2018-08-31T22:53:20.524Z,50.96
2018-08-31T22:55:51.475Z,51.61
2018-08-31T22:58:22.485Z,50.89
2018-08-31T23:00:53.523Z,51.68
2018-08-31T23:03:24.511Z,51.17
2018-08-31T23:05:55.485Z,51.47
2018-08-31T23:08:26.522Z,51.51
2018-08-31T23:10:57.498Z,51.84
2018-08-31T23:13:28.478Z,51.67
2018-08-31T23:15:59.486Z,51.92
2018-08-31T23:18:30.516Z,51.58
2018-08-31T23:21:01.502Z,52.17
2018-08-31T23:23:37.682Z,52.13
2018-08-31T23:26:08.548Z,52.63
2018-08-31T23:28:39.490Z,52.56
2018-08-31T23:31:10.473Z,52.53
2018-08-31T23:33:41.568Z,52.51
2018-08-31T23:36:12.474Z,52.31
2018-08-31T23:38:43.506Z,52.52
2018-08-31T23:41:14.441Z,52.54
2018-08-31T23:43:45.444Z,53.15
2018-08-31T23:46:16.417Z,52.58
2018-08-31T23:48:47.465Z,53.27
2018-08-31T23:51:18.441Z,53.42
2018-08-31T23:53:49.480Z,53.30
2018-08-31T23:56:20.481Z,53.00
2018-08-31T23:58:52.494Z,53.58
